KRKD/RKD METAR and TAF weather

Enter ICAO airport designator
Station Type Date Time Source
KRKD METAR 2019/02/21 11:16 UTC NOAA

KRKD 211116Z AUTO 14005KT 2 1/2SM -SN BR OVC004 M02/M02 A2998 RMK AO2 VIS 2V3 P0001 FZRANO


Station Type Date Time Source
KRKD Decoded METAR 2019/02/21 11:16 UTC NOAA

Rockland, Knox County Regional Airport, ME, United States (KRKD) 44-04N 069-06W
Feb 21, 2019 - 06:16 AM EST / 2019.02.21 1116 UTC
Wind: from the SE (140 degrees) at 6 MPH (5 KT):0
Visibility: 2 1/2 mile(s):0
Sky conditions: overcast
Weather: light snow; mist
Precipitation last hour: 0.01 inches
Temperature: 28 F (-2 C)
Windchill: 21 F (-6 C):1
Dew Point: 28 F (-2 C)
Relative Humidity: 100%
Pressure (altimeter): 29.98 in. Hg (1015 hPa)
ob: KRKD 211116Z AUTO 14005KT 2 1/2SM -SN BR OVC004 M02/M02 A2998 RMK AO2 VIS 2V3 P0001 FZRANO
cycle: 11

Station Type Date Time Source
KRKD TAF 2019/02/21 12:30 UTC NOAA

TAF KRKD 211128Z 2112/2212 13006KT 2SM -SN BR OVC004
FM211400 18007KT 3SM BR BKN006
FM211900 28007KT P6SM SCT035
AMD LTD TO CLD VIS AND WIND


Example: see airport list